Time;durP1;ratioP1;P1;durP2;ratioP2;P2;SDS_P1;SDS_P2;PMS_P1;PMS_P2;Temp;Humidity;BMP_temperature;BMP_pressure;BME280_temperature;BME280_humidity;BME280_pressure;Samples;Min_cycle;Max_cycle;Signal;HPM_P1;HPM_P2
2022/01/27 00:03:30;;;;;;;88.67;57.62;;;23.10;80.70;;;;;;1983976;71;21223;-84
2022/01/27 00:05:20;;;;;;;67.20;49.95;;;23.20;80.50;;;;;;1993148;71;21126;-84
2022/01/27 00:08:09;;;;;;;75.92;50.90;;;23.30;80.30;;;;;;1978610;71;21226;-84
2022/01/27 00:12:52;;;;;;;87.00;61.65;;;23.40;80.10;;;;;;1980491;71;21167;-83
2022/01/27 00:15:30;;;;;;;99.87;72.17;;;23.40;80.20;;;;;;1932698;73;21076;-84
2022/01/27 00:18:02;;;;;;;93.07;63.33;;;23.50;80.30;;;;;;1933534;73;21166;-84
2022/01/27 00:20:27;;;;;;;75.57;51.28;;;23.50;80.50;;;;;;1925493;72;21175;-83
2022/01/27 00:22:59;;;;;;;69.87;51.13;;;23.50;79.80;;;;;;1923550;73;21127;-84
2022/01/27 00:25:30;;;;;;;77.40;52.88;;;23.50;80.40;;;;;;1927965;73;21097;-86
2022/01/27 00:28:01;;;;;;;78.85;59.75;;;23.60;80.60;;;;;;1926854;73;21151;-85
2022/01/27 00:30:31;;;;;;;80.70;57.93;;;23.60;80.60;;;;;;1981314;71;21188;-86
2022/01/27 00:33:04;;;;;;;72.85;52.25;;;23.70;80.80;;;;;;1900102;73;21116;-86
2022/01/27 00:35:35;;;;;;;75.03;54.70;;;23.70;80.40;;;;;;1930657;72;21149;-86
2022/01/27 00:38:05;;;;;;;81.22;58.78;;;23.70;80.40;;;;;;1895367;74;21110;-86
2022/01/27 00:40:36;;;;;;;74.50;54.05;;;23.70;80.40;;;;;;1929127;73;21136;-86
2022/01/27 00:43:07;;;;;;;70.03;53.80;;;23.80;80.00;;;;;;1973478;71;21584;-85
2022/01/27 00:45:38;;;;;;;68.17;52.62;;;23.80;79.80;;;;;;1980689;71;21159;-86
2022/01/27 00:48:08;;;;;;;67.62;51.68;;;23.90;79.50;;;;;;1991889;71;21109;-87
2022/01/27 00:50:40;;;;;;;67.50;50.90;;;23.90;77.90;;;;;;1986708;70;21201;-86
2022/01/27 00:55:43;;;;;;;78.97;58.17;;;24.00;76.40;;;;;;1990912;71;21102;-85
2022/01/27 01:00:58;;;;;;;80.85;58.60;;;24.20;76.10;;;;;;1979991;71;21635;-86
2022/01/27 01:03:33;;;;;;;78.52;57.53;;;24.20;75.30;;;;;;1989712;71;21203;-87
2022/01/27 01:15:56;;;;;;;68.65;50.28;;;24.40;74.60;;;;;;1991195;71;21252;-86
2022/01/27 01:31:15;;;;;;;65.47;50.90;;;24.70;74.30;;;;;;1970678;71;21089;-75
2022/01/27 01:33:42;;;;;;;59.42;41.50;;;24.80;74.40;;;;;;1980108;71;21049;-76
2022/01/27 01:36:26;;;;;;;48.25;38.28;;;24.80;74.20;;;;;;1919159;73;21636;-76
2022/01/27 01:38:45;;;;;;;45.80;31.80;;;24.90;74.10;;;;;;1933360;72;21111;-76
2022/01/27 01:41:16;;;;;;;54.73;31.57;;;24.90;73.90;;;;;;1987751;71;21110;-76
2022/01/27 01:43:47;;;;;;;36.73;25.45;;;25.00;73.60;;;;;;1991202;71;21189;-73
2022/01/27 01:46:17;;;;;;;34.40;22.75;;;25.00;74.20;;;;;;1984602;71;22020;-74
2022/01/27 01:48:49;;;;;;;35.55;24.25;;;25.00;72.90;;;;;;1992936;71;21112;-74
2022/01/27 01:51:22;;;;;;;35.92;25.70;;;25.10;72.90;;;;;;1979434;71;21072;-73
2022/01/27 01:53:53;;;;;;;38.90;28.20;;;25.10;72.80;;;;;;1975495;71;21142;-73
2022/01/27 01:56:24;;;;;;;39.98;27.77;;;25.20;73.00;;;;;;1993828;71;21639;-73
2022/01/27 01:58:55;;;;;;;39.48;28.32;;;25.30;72.70;;;;;;1987795;71;21072;-72
2022/01/27 02:01:26;;;;;;;40.43;27.30;;;25.30;72.60;;;;;;1971236;71;21056;-73
2022/01/27 02:04:01;;;;;;;46.73;29.57;;;25.30;72.50;;;;;;1982874;71;21108;-73
2022/01/27 02:06:36;;;;;;;36.50;27.95;;;25.40;72.70;;;;;;1983234;71;21615;-73
2022/01/27 02:19:18;;;;;;;39.83;29.10;;;25.60;71.80;;;;;;1984906;71;21906;-74
2022/01/27 02:21:52;;;;;;;40.80;28.90;;;25.70;71.90;;;;;;1967189;72;21064;-73
2022/01/27 02:24:25;;;;;;;38.33;28.67;;;25.70;71.80;;;;;;1998156;71;21966;-73
2022/01/27 02:26:57;;;;;;;39.75;28.45;;;25.70;71.70;;;;;;1975101;71;21136;-74
2022/01/27 02:29:29;;;;;;;44.83;32.17;;;25.70;71.70;;;;;;1989412;71;21258;-74
2022/01/27 02:32:01;;;;;;;45.40;33.25;;;25.80;71.80;;;;;;1971272;71;22179;-74
2022/01/27 02:34:32;;;;;;;41.68;30.50;;;25.90;71.60;;;;;;1933922;72;21580;-74
2022/01/27 02:37:03;;;;;;;39.13;30.05;;;25.90;71.50;;;;;;1928483;74;21669;-74
2022/01/27 02:39:34;;;;;;;41.63;30.40;;;25.90;71.30;;;;;;1950359;73;21621;-74
2022/01/27 02:42:07;;;;;;;40.35;30.48;;;26.00;71.40;;;;;;1991113;71;21152;-73
2022/01/27 02:44:40;;;;;;;37.25;26.93;;;26.10;71.30;;;;;;1990604;71;21131;-74
2022/01/27 02:47:12;;;;;;;35.90;25.95;;;26.10;71.00;;;;;;1976871;71;21556;-74
2022/01/27 02:49:43;;;;;;;38.45;27.10;;;26.20;70.70;;;;;;1973424;71;21095;-74
2022/01/27 02:52:15;;;;;;;37.05;28.55;;;26.20;70.70;;;;;;1988072;71;21156;-74
2022/01/27 02:54:46;;;;;;;33.80;26.55;;;26.30;70.50;;;;;;1983560;72;21114;-74
2022/01/27 02:57:20;;;;;;;32.78;23.87;;;26.40;70.30;;;;;;1997352;71;21552;-75
2022/01/27 02:59:51;;;;;;;36.33;24.40;;;26.40;70.00;;;;;;1985407;69;21998;-74
2022/01/27 03:02:24;;;;;;;31.27;23.73;;;26.50;69.50;;;;;;1940472;72;21139;-74
2022/01/27 03:04:55;;;;;;;27.07;21.35;;;26.50;69.50;;;;;;1989627;71;21201;-75
2022/01/27 03:07:26;;;;;;;27.70;20.37;;;26.60;68.40;;;;;;1981849;71;21067;-74
2022/01/27 03:09:57;;;;;;;28.30;21.07;;;26.70;68.70;;;;;;1990156;70;21489;-73
2022/01/27 03:12:30;;;;;;;31.57;23.98;;;26.70;68.30;;;;;;1993650;71;21162;-72
2022/01/27 03:15:01;;;;;;;31.45;23.05;;;26.80;68.70;;;;;;1896473;73;21290;-73
2022/01/27 03:17:32;;;;;;;31.30;22.62;;;26.80;68.70;;;;;;1991970;71;21587;-73
2022/01/27 03:20:03;;;;;;;32.73;23.30;;;26.80;67.70;;;;;;1969367;71;21115;-72
2022/01/27 03:22:34;;;;;;;35.35;24.67;;;26.90;68.20;;;;;;1924787;72;21092;-73
2022/01/27 03:25:05;;;;;;;32.93;25.77;;;27.00;68.00;;;;;;1904933;74;21081;-72
2022/01/27 03:27:36;;;;;;;35.78;27.80;;;27.00;68.30;;;;;;1942868;72;21215;-72
2022/01/27 03:30:07;;;;;;;35.30;27.02;;;27.10;68.80;;;;;;1947081;72;21186;-73
2022/01/27 03:32:38;;;;;;;34.38;27.07;;;27.10;68.60;;;;;;1994192;71;21631;-72
2022/01/27 03:35:09;;;;;;;35.55;27.17;;;27.20;68.60;;;;;;1975468;71;21569;-73
2022/01/27 03:37:40;;;;;;;30.97;23.90;;;27.30;68.50;;;;;;1981080;71;21069;-72
2022/01/27 03:40:11;;;;;;;28.32;22.77;;;27.30;67.80;;;;;;1969505;71;21198;-72
2022/01/27 03:42:50;;;;;;;35.73;24.12;;;27.40;66.90;;;;;;1965338;71;21173;-72
2022/01/27 03:45:15;;;;;;;27.07;20.25;;;27.50;66.90;;;;;;1997538;71;21599;-72
2022/01/27 03:47:46;;;;;;;29.55;19.48;;;27.60;65.60;;;;;;2000205;71;21665;-72
2022/01/27 03:50:16;;;;;;;25.85;19.37;;;27.70;64.70;;;;;;2002711;71;21173;-72
2022/01/27 03:52:47;;;;;;;27.40;18.85;;;27.80;63.60;;;;;;1995357;70;21206;-72
2022/01/27 03:55:19;;;;;;;24.82;18.82;;;28.00;62.30;;;;;;1971267;71;21118;-72
2022/01/27 03:57:49;;;;;;;24.65;18.52;;;28.20;61.60;;;;;;1972813;71;21107;-72
2022/01/27 04:00:20;;;;;;;24.23;18.32;;;28.30;60.50;;;;;;1962673;72;21114;-72
2022/01/27 04:03:01;;;;;;;24.67;19.60;;;28.50;61.20;;;;;;1972215;71;21680;-72
2022/01/27 04:05:25;;;;;;;27.30;19.02;;;28.60;61.00;;;;;;1967518;71;21100;-72
2022/01/27 04:07:57;;;;;;;26.75;19.20;;;28.70;60.60;;;;;;1962480;71;21170;-73
2022/01/27 04:10:28;;;;;;;23.77;17.70;;;28.80;60.20;;;;;;1994442;70;21466;-73
2022/01/27 04:12:58;;;;;;;26.52;18.80;;;28.90;60.30;;;;;;1980040;71;21133;-72
2022/01/27 04:15:29;;;;;;;25.68;18.05;;;29.00;59.60;;;;;;1971625;71;21065;-72
2022/01/27 04:18:00;;;;;;;22.65;17.25;;;29.20;58.90;;;;;;1954486;71;21081;-72
2022/01/27 04:20:32;;;;;;;25.02;16.95;;;29.30;58.30;;;;;;1977439;71;21565;-72
2022/01/27 04:23:02;;;;;;;24.80;17.30;;;29.40;59.10;;;;;;1997898;71;21033;-73
2022/01/27 04:25:34;;;;;;;21.20;17.10;;;29.50;58.50;;;;;;1988812;71;21145;-72
2022/01/27 04:28:10;;;;;;;20.68;15.75;;;29.50;58.00;;;;;;1987903;71;21150;-72
2022/01/27 04:30:38;;;;;;;19.70;15.23;;;29.60;58.70;;;;;;1999970;71;21100;-73
2022/01/27 04:33:10;;;;;;;18.95;14.33;;;29.70;57.40;;;;;;1971972;71;21258;-74
2022/01/27 04:35:47;;;;;;;19.95;13.85;;;29.80;56.60;;;;;;1986847;71;21128;-73
2022/01/27 04:43:28;;;;;;;20.65;14.20;;;30.10;55.40;;;;;;1998713;71;21166;-73
2022/01/27 04:46:04;;;;;;;21.30;14.98;;;30.20;56.70;;;;;;1986479;71;21352;-87
2022/01/27 04:48:25;;;;;;;20.45;15.45;;;30.40;57.10;;;;;;1981566;70;21663;-81
2022/01/27 04:51:04;;;;;;;18.73;13.55;;;30.50;56.10;;;;;;1988890;71;21210;-82
2022/01/27 04:53:33;;;;;;;17.57;13.60;;;30.50;55.60;;;;;;1997691;71;21151;-82
2022/01/27 04:56:01;;;;;;;19.40;13.03;;;30.60;54.60;;;;;;1978498;71;21060;-81
2022/01/27 04:58:33;;;;;;;17.27;12.33;;;30.70;53.60;;;;;;1983773;70;21137;-84
2022/01/27 05:01:05;;;;;;;18.45;13.48;;;30.80;53.30;;;;;;1983615;71;21163;-83
2022/01/27 05:03:45;;;;;;;17.02;12.82;;;30.80;54.00;;;;;;2001873;71;21056;-83
2022/01/27 05:06:08;;;;;;;22.17;13.10;;;30.90;52.60;;;;;;1983437;71;21097;-83
2022/01/27 05:08:39;;;;;;;15.68;12.95;;;31.00;53.00;;;;;;1910817;74;21780;-83
2022/01/27 05:11:19;;;;;;;20.68;13.18;;;31.10;53.00;;;;;;1951108;71;21221;-81
2022/01/27 05:13:55;;;;;;;17.05;12.07;;;31.10;53.30;;;;;;1959385;71;21154;-82
2022/01/27 05:16:15;;;;;;;14.78;12.50;;;31.20;51.90;;;;;;1909068;72;21229;-83
2022/01/27 05:18:46;;;;;;;16.70;13.13;;;31.20;51.00;;;;;;1940872;72;21139;-82
2022/01/27 05:21:17;;;;;;;14.75;11.63;;;31.30;51.10;;;;;;2011457;71;21112;-82
2022/01/27 05:23:47;;;;;;;18.27;12.25;;;31.30;51.80;;;;;;2015663;70;21151;-82
2022/01/27 05:26:18;;;;;;;17.75;11.00;;;31.40;53.90;;;;;;2001650;71;21104;-82
2022/01/27 05:28:49;;;;;;;13.00;11.20;;;31.50;52.10;;;;;;1998103;70;21104;-82
2022/01/27 05:31:20;;;;;;;14.23;11.63;;;31.50;52.00;;;;;;1979984;72;21031;-83
2022/01/27 05:33:51;;;;;;;15.80;11.63;;;31.50;51.20;;;;;;1974457;71;21587;-82
2022/01/27 05:36:22;;;;;;;16.17;12.47;;;31.50;50.90;;;;;;1961002;71;21126;-82
2022/01/27 05:38:53;;;;;;;15.15;12.00;;;31.60;51.10;;;;;;1978930;71;21096;-82
2022/01/27 05:41:24;;;;;;;19.95;12.90;;;31.60;51.60;;;;;;1999486;71;21100;-83
2022/01/27 05:43:55;;;;;;;16.15;13.15;;;31.60;49.70;;;;;;1997721;71;21107;-83
2022/01/27 05:46:25;;;;;;;15.93;11.85;;;31.60;49.90;;;;;;1987890;71;21252;-82
2022/01/27 05:48:56;;;;;;;19.27;11.88;;;31.70;49.90;;;;;;1907194;73;21189;-83
2022/01/27 05:51:27;;;;;;;15.72;10.53;;;31.70;50.00;;;;;;1947486;72;21566;-83
2022/01/27 05:53:58;;;;;;;10.75;9.43;;;31.80;52.20;;;;;;1902332;73;21127;-83
2022/01/27 05:56:29;;;;;;;16.80;10.72;;;31.80;47.10;;;;;;1951158;72;21091;-82
2022/01/27 05:58:59;;;;;;;17.87;10.13;;;32.00;48.60;;;;;;1905690;73;21107;-82
2022/01/27 06:01:30;;;;;;;14.53;10.30;;;32.00;46.40;;;;;;1970065;72;21053;-83
2022/01/27 06:04:01;;;;;;;15.75;10.82;;;32.00;46.60;;;;;;1975486;72;21216;-83
2022/01/27 06:06:33;;;;;;;14.25;11.38;;;32.10;48.60;;;;;;1971881;71;21597;-83
2022/01/27 06:09:04;;;;;;;12.73;9.50;;;32.20;49.10;;;;;;2010551;71;21132;-82
2022/01/27 06:11:35;;;;;;;14.78;9.40;;;32.30;46.90;;;;;;2004350;69;21166;-82
2022/01/27 06:14:05;;;;;;;13.75;9.30;;;32.40;44.70;;;;;;1952098;71;21072;-82
2022/01/27 06:16:36;;;;;;;12.82;8.95;;;32.40;45.00;;;;;;1944358;73;21154;-82
2022/01/27 06:19:08;;;;;;;13.58;9.08;;;32.40;42.30;;;;;;1967847;71;21558;-82
2022/01/27 06:21:40;;;;;;;11.45;9.75;;;32.50;44.60;;;;;;1946806;72;21120;-82
2022/01/27 06:24:12;;;;;;;15.53;9.25;;;32.50;45.70;;;;;;2004317;71;21080;-82
2022/01/27 06:26:44;;;;;;;11.53;9.25;;;32.50;42.80;;;;;;1989951;71;21109;-82
2022/01/27 06:29:15;;;;;;;13.13;10.32;;;32.50;41.90;;;;;;2003766;71;21061;-82
2022/01/27 06:31:47;;;;;;;12.23;9.53;;;32.60;45.20;;;;;;2003405;71;21156;-82
2022/01/27 06:34:17;;;;;;;12.25;9.28;;;32.60;41.40;;;;;;2000738;71;21212;-82
2022/01/27 06:36:48;;;;;;;15.28;10.13;;;32.60;43.70;;;;;;1981394;69;21703;-82
2022/01/27 06:39:19;;;;;;;14.20;10.70;;;32.60;42.80;;;;;;1982946;71;21136;-83
2022/01/27 06:41:54;;;;;;;13.68;10.55;;;32.70;45.00;;;;;;1979943;71;21666;-83
2022/01/27 06:44:22;;;;;;;12.23;9.75;;;32.70;44.60;;;;;;1986035;71;21162;-83
2022/01/27 06:46:52;;;;;;;17.87;11.25;;;32.70;43.50;;;;;;1978791;71;21248;-83
2022/01/27 06:49:23;;;;;;;12.70;9.40;;;32.70;44.90;;;;;;1983133;71;21065;-83
2022/01/27 06:51:54;;;;;;;11.83;9.65;;;32.70;43.90;;;;;;1980112;71;21153;-82
2022/01/27 06:54:24;;;;;;;13.93;11.78;;;32.70;42.30;;;;;;1996720;70;21644;-82
2022/01/27 06:56:55;;;;;;;14.18;11.18;;;32.70;44.20;;;;;;1985791;71;21081;-82
2022/01/27 06:59:26;;;;;;;19.57;10.90;;;32.70;44.70;;;;;;1973888;71;21094;-82
2022/01/27 07:01:56;;;;;;;13.38;10.65;;;32.70;44.20;;;;;;1983489;71;21621;-83
2022/01/27 07:04:27;;;;;;;16.45;11.45;;;32.60;45.30;;;;;;1983512;71;21581;-82
2022/01/27 07:06:58;;;;;;;15.43;11.38;;;32.40;47.00;;;;;;1985517;71;21124;-82
2022/01/27 07:09:29;;;;;;;12.55;10.70;;;32.30;47.50;;;;;;1968007;72;21081;-82
2022/01/27 07:11:59;;;;;;;13.75;10.98;;;32.20;47.40;;;;;;1913607;73;21625;-82
2022/01/27 07:14:32;;;;;;;12.30;10.63;;;32.00;47.30;;;;;;1913083;73;21163;-81
2022/01/27 07:17:04;;;;;;;16.37;11.60;;;31.80;47.00;;;;;;1933782;74;21182;-82
2022/01/27 07:19:35;;;;;;;14.65;11.05;;;31.70;47.60;;;;;;1886589;73;21155;-84
2022/01/27 07:22:05;;;;;;;14.58;10.48;;;31.60;47.10;;;;;;1907244;73;21143;-83
2022/01/27 07:24:36;;;;;;;15.45;11.00;;;31.40;47.40;;;;;;1948483;73;21199;-83
2022/01/27 07:27:07;;;;;;;12.60;10.13;;;31.40;48.20;;;;;;1924240;73;21152;-82
2022/01/27 07:29:38;;;;;;;13.85;10.28;;;31.20;48.00;;;;;;1932530;73;21100;-83
2022/01/27 07:32:09;;;;;;;17.82;12.07;;;31.10;47.50;;;;;;1897566;74;21522;-83
2022/01/27 07:34:41;;;;;;;20.10;14.25;;;31.00;47.60;;;;;;1931188;73;21048;-82
2022/01/27 07:37:12;;;;;;;13.65;11.18;;;30.90;48.20;;;;;;1904001;75;21138;-82
2022/01/27 07:39:42;;;;;;;14.30;10.55;;;30.90;48.50;;;;;;1924674;73;21060;-82
2022/01/27 07:42:13;;;;;;;14.47;10.68;;;30.80;48.50;;;;;;1916587;72;21604;-81
2022/01/27 07:44:44;;;;;;;13.43;10.78;;;30.80;48.60;;;;;;2000804;71;21161;-83
2022/01/27 07:47:15;;;;;;;15.00;11.15;;;30.70;48.40;;;;;;1987328;71;21166;-82
2022/01/27 07:49:46;;;;;;;13.20;10.30;;;30.70;48.90;;;;;;1986711;71;21101;-81
2022/01/27 07:52:18;;;;;;;11.78;9.53;;;30.70;49.00;;;;;;1987799;71;21045;-83
2022/01/27 07:54:49;;;;;;;12.53;9.85;;;30.70;48.60;;;;;;1981202;71;21084;-83
2022/01/27 07:57:20;;;;;;;16.45;10.28;;;30.80;48.10;;;;;;1978800;71;21786;-82
2022/01/27 07:59:50;;;;;;;17.37;12.80;;;30.80;47.90;;;;;;1983336;71;21675;-82
2022/01/27 08:02:21;;;;;;;14.18;11.08;;;30.90;47.60;;;;;;1980649;71;21713;-82
2022/01/27 08:04:52;;;;;;;11.95;9.98;;;30.90;47.40;;;;;;1981223;71;21083;-83
2022/01/27 08:07:23;;;;;;;14.75;10.82;;;30.90;47.10;;;;;;1985173;71;21560;-82
2022/01/27 08:09:53;;;;;;;12.30;9.23;;;30.90;46.70;;;;;;1984767;71;21124;-83
2022/01/27 08:12:24;;;;;;;12.13;9.25;;;30.90;47.00;;;;;;1986345;71;21560;-83
2022/01/27 08:14:55;;;;;;;11.85;8.33;;;30.90;46.80;;;;;;1991523;71;21170;-83
2022/01/27 08:17:25;;;;;;;12.28;9.30;;;30.90;47.40;;;;;;1965436;71;21253;-83
2022/01/27 08:19:56;;;;;;;13.53;11.18;;;30.90;46.80;;;;;;1944115;72;21174;-82
2022/01/27 08:22:27;;;;;;;14.85;9.15;;;30.90;47.00;;;;;;1947559;71;21568;-81
2022/01/27 08:24:58;;;;;;;13.72;9.48;;;30.80;46.90;;;;;;1959653;71;21108;-82
2022/01/27 08:27:30;;;;;;;12.23;9.25;;;30.80;46.70;;;;;;2006088;71;21080;-83
2022/01/27 08:30:04;;;;;;;11.88;9.35;;;30.80;46.70;;;;;;2003037;71;21124;-83
2022/01/27 08:35:05;;;;;;;11.28;8.83;;;30.80;47.10;;;;;;1944502;73;21674;-80
2022/01/27 08:37:36;;;;;;;12.70;8.88;;;30.80;47.00;;;;;;1953286;71;21111;-82
2022/01/27 08:40:08;;;;;;;18.17;8.95;;;30.80;46.90;;;;;;1979740;71;21108;-81
2022/01/27 08:42:40;;;;;;;11.57;9.53;;;30.80;47.30;;;;;;1965519;71;21223;-82
2022/01/27 08:45:13;;;;;;;15.58;9.88;;;30.90;47.10;;;;;;1956200;72;21646;-82
2022/01/27 08:47:46;;;;;;;14.33;10.03;;;30.90;47.50;;;;;;1981542;72;21206;-83
2022/01/27 08:50:19;;;;;;;15.65;11.85;;;30.90;47.40;;;;;;1975456;71;21218;-82
2022/01/27 08:52:49;;;;;;;14.20;9.23;;;31.00;47.60;;;;;;1966181;72;21110;-82
2022/01/27 08:55:21;;;;;;;12.82;10.20;;;31.00;46.30;;;;;;1963305;72;21776;-82
2022/01/27 08:57:52;;;;;;;13.13;10.15;;;31.10;47.50;;;;;;1991702;71;21185;-82
2022/01/27 09:00:23;;;;;;;14.20;10.53;;;31.10;48.00;;;;;;1994045;70;21129;-82
2022/01/27 09:02:54;;;;;;;15.43;11.30;;;31.20;48.00;;;;;;2001887;69;21174;-82
2022/01/27 09:05:25;;;;;;;14.00;10.30;;;31.20;48.10;;;;;;1945952;72;21144;-82
2022/01/27 09:07:57;;;;;;;12.33;10.40;;;31.10;48.20;;;;;;1900432;73;21151;-82
2022/01/27 09:10:31;;;;;;;14.47;10.58;;;31.10;48.50;;;;;;1845221;76;21285;-81
2022/01/27 09:13:01;;;;;;;15.32;10.82;;;31.10;48.50;;;;;;1915209;73;21114;-81
2022/01/27 09:15:32;;;;;;;13.80;10.50;;;31.20;48.40;;;;;;1943587;72;21202;-82
2022/01/27 09:18:03;;;;;;;15.15;10.70;;;31.20;48.20;;;;;;1910922;74;21572;-81
2022/01/27 09:20:34;;;;;;;11.78;9.83;;;31.10;48.00;;;;;;1998673;71;21561;-82
2022/01/27 09:23:12;;;;;;;17.67;12.13;;;31.20;48.30;;;;;;1988960;71;21152;-82
2022/01/27 09:25:42;;;;;;;14.60;10.68;;;31.10;48.20;;;;;;1958637;71;21115;-82
2022/01/27 09:28:09;;;;;;;18.10;11.50;;;31.20;48.50;;;;;;1969911;71;21063;-82
2022/01/27 09:30:41;;;;;;;13.10;10.00;;;31.10;47.80;;;;;;2003786;69;21146;-83
2022/01/27 09:33:13;;;;;;;15.88;10.80;;;31.10;48.30;;;;;;1953364;73;21121;-82
2022/01/27 09:35:44;;;;;;;18.82;9.78;;;31.20;48.30;;;;;;1952376;71;21227;-82
2022/01/27 09:38:16;;;;;;;14.63;10.65;;;31.10;48.20;;;;;;1953351;73;21115;-82
2022/01/27 09:40:50;;;;;;;14.98;10.45;;;31.10;48.50;;;;;;1953744;73;21164;-82
2022/01/27 09:43:21;;;;;;;14.30;11.03;;;31.10;48.50;;;;;;1948797;72;21073;-80
2022/01/27 09:45:54;;;;;;;15.70;10.88;;;31.00;48.50;;;;;;1948757;72;21131;-81
2022/01/27 09:48:26;;;;;;;13.30;9.60;;;31.00;48.50;;;;;;1947441;72;21204;-81
2022/01/27 09:53:30;;;;;;;14.60;10.18;;;31.00;48.50;;;;;;1901363;74;21186;-83
2022/01/27 09:56:01;;;;;;;15.58;10.35;;;30.90;48.40;;;;;;2000498;71;21124;-83
2022/01/27 09:58:32;;;;;;;13.50;9.55;;;30.90;48.30;;;;;;1995390;71;21614;-83
2022/01/27 10:01:04;;;;;;;13.65;9.70;;;30.80;48.40;;;;;;1980533;71;21142;-81
2022/01/27 10:03:35;;;;;;;13.28;10.32;;;30.80;48.70;;;;;;1985011;71;21580;-82
2022/01/27 10:06:09;;;;;;;11.40;9.43;;;30.70;48.70;;;;;;2002417;71;21473;-82
2022/01/27 10:08:43;;;;;;;15.15;10.35;;;30.70;48.60;;;;;;1993469;71;21157;-83
2022/01/27 10:11:15;;;;;;;12.68;9.50;;;30.70;48.60;;;;;;1976372;71;21185;-82
2022/01/27 10:13:47;;;;;;;14.75;9.08;;;30.70;48.70;;;;;;1995687;71;21051;-81
2022/01/27 10:16:20;;;;;;;12.23;9.60;;;30.60;49.00;;;;;;1986170;71;21132;-81
2022/01/27 10:18:52;;;;;;;15.55;10.70;;;30.60;48.90;;;;;;1991961;71;21061;-81
2022/01/27 10:21:25;;;;;;;13.98;9.45;;;30.50;48.90;;;;;;1991545;71;21143;-80
2022/01/27 10:23:57;;;;;;;15.03;10.40;;;30.50;48.70;;;;;;1991703;71;21189;-82
2022/01/27 10:26:41;;;;;;;19.15;13.60;;;30.40;48.70;;;;;;1992172;71;21209;-81
2022/01/27 10:29:13;;;;;;;12.43;10.15;;;30.40;49.00;;;;;;1991624;71;21724;-81
2022/01/27 10:31:38;;;;;;;14.53;10.32;;;30.40;48.90;;;;;;1997381;71;21236;-81
2022/01/27 10:34:11;;;;;;;15.65;11.53;;;30.30;49.10;;;;;;2006041;71;21073;-81
2022/01/27 10:36:44;;;;;;;20.30;14.85;;;30.30;49.00;;;;;;2003620;71;21135;-82
2022/01/27 10:39:17;;;;;;;16.65;12.98;;;30.30;49.00;;;;;;2007773;71;21080;-81
2022/01/27 10:41:51;;;;;;;16.65;12.10;;;30.30;48.90;;;;;;2011318;71;21659;-82
2022/01/27 10:44:23;;;;;;;16.87;11.43;;;30.20;48.90;;;;;;2001499;71;21558;-81
2022/01/27 10:46:57;;;;;;;16.25;11.40;;;30.20;49.10;;;;;;2009064;71;21181;-81
2022/01/27 10:50:00;;;;;;;18.87;11.38;;;30.20;49.30;;;;;;2003942;71;21069;-85
2022/01/27 10:52:42;;;;;;;22.73;10.30;;;30.10;49.40;;;;;;1992483;71;21052;-85
2022/01/27 10:55:18;;;;;;;14.90;11.00;;;30.10;49.40;;;;;;1967774;71;21658;-83
2022/01/27 11:00:38;;;;;;;13.20;10.65;;;30.00;49.90;;;;;;1950192;72;21152;-84
2022/01/27 11:03:26;;;;;;;19.98;11.22;;;30.00;49.90;;;;;;1986096;71;21134;-83
2022/01/27 11:09:43;;;;;;;14.38;10.18;;;29.90;50.50;;;;;;1858382;75;21196;-87
2022/01/27 11:12:22;;;;;;;20.77;12.82;;;29.80;50.30;;;;;;1881034;76;21102;-88
2022/01/27 11:15:37;;;;;;;23.30;11.95;;;29.80;51.10;;;;;;1878614;76;21671;-88
2022/01/27 11:17:44;;;;;;;14.63;10.38;;;29.70;51.30;;;;;;1729287;82;21184;-87
2022/01/27 11:20:49;;;;;;;18.70;11.88;;;29.60;51.40;;;;;;1692779;84;21095;-88
2022/01/27 11:26:07;;;;;;;23.25;14.90;;;29.60;51.70;;;;;;1701740;84;21304;-86
2022/01/27 11:28:40;;;;;;;22.55;13.50;;;29.60;51.90;;;;;;1742990;81;21270;-87
2022/01/27 11:31:13;;;;;;;22.75;12.68;;;29.50;52.20;;;;;;1739193;81;21133;-87
2022/01/27 11:33:47;;;;;;;22.85;12.53;;;29.50;52.50;;;;;;1702656;80;21217;-87
2022/01/27 11:36:22;;;;;;;20.23;11.75;;;29.40;52.80;;;;;;1732281;80;21207;-88
2022/01/27 11:38:51;;;;;;;20.00;11.63;;;29.30;53.10;;;;;;1735611;80;21189;-86
2022/01/27 11:41:24;;;;;;;19.75;11.78;;;29.20;53.00;;;;;;1748526;79;21118;-87
2022/01/27 11:43:57;;;;;;;17.12;12.13;;;29.10;53.00;;;;;;1733633;83;21153;-88
2022/01/27 11:46:33;;;;;;;19.20;12.60;;;29.10;53.30;;;;;;1743322;81;21199;-88
2022/01/27 11:49:00;;;;;;;19.70;12.33;;;29.00;53.40;;;;;;1738681;81;21256;-89
2022/01/27 11:51:31;;;;;;;20.85;13.13;;;28.90;53.50;;;;;;1704581;83;21641;-87
2022/01/27 11:54:01;;;;;;;21.55;16.77;;;28.90;53.50;;;;;;1800719;79;21628;-88
2022/01/27 11:56:36;;;;;;;29.80;20.72;;;28.90;53.90;;;;;;1793852;79;21114;-87
2022/01/27 11:59:08;;;;;;;37.83;21.48;;;28.90;55.10;;;;;;1776415;80;21130;-89
2022/01/27 12:01:39;;;;;;;35.78;21.55;;;28.90;54.20;;;;;;1855686;73;21116;-89
2022/01/27 12:04:15;;;;;;;39.33;24.00;;;28.90;54.40;;;;;;1923668;73;21061;-89
2022/01/27 12:06:46;;;;;;;36.38;21.68;;;28.90;54.50;;;;;;1930035;73;21068;-89
2022/01/27 12:09:19;;;;;;;35.38;16.37;;;28.90;54.50;;;;;;1942535;73;21076;-86
2022/01/27 12:12:00;;;;;;;41.30;17.05;;;28.90;54.50;;;;;;1937840;73;21236;-88
2022/01/27 12:14:28;;;;;;;24.92;14.78;;;28.80;54.50;;;;;;1938001;74;21060;-87
2022/01/27 12:17:10;;;;;;;27.87;15.32;;;28.80;54.50;;;;;;1936114;74;21149;-88
2022/01/27 12:19:51;;;;;;;23.70;13.95;;;28.80;54.60;;;;;;1894578;75;21187;-90
2022/01/27 12:22:26;;;;;;;21.57;13.88;;;28.70;54.60;;;;;;1927983;74;21566;-90
2022/01/27 12:25:02;;;;;;;23.77;14.25;;;28.70;54.80;;;;;;1916199;74;21150;-87
2022/01/27 12:27:33;;;;;;;26.07;14.65;;;28.60;55.20;;;;;;1931924;74;21128;-88
2022/01/27 12:30:09;;;;;;;23.83;14.00;;;28.60;55.50;;;;;;1934258;74;21172;-89
2022/01/27 12:32:40;;;;;;;20.45;13.72;;;28.50;55.80;;;;;;1944526;73;21127;-89
2022/01/27 12:35:17;;;;;;;25.50;14.95;;;28.50;55.50;;;;;;1948305;73;21687;-89
2022/01/27 12:37:48;;;;;;;;;;;28.40;55.70;;;;;;1944080;73;21052;-87
2022/01/27 12:40:21;;;;;;;29.65;17.75;;;28.40;55.60;;;;;;1936478;74;20203;-90
2022/01/27 12:43:02;;;;;;;35.30;21.07;;;28.40;56.10;;;;;;1936209;74;21061;-89
2022/01/27 12:45:30;;;;;;;29.87;19.50;;;28.40;56.10;;;;;;1904413;75;21182;-88
2022/01/27 12:48:06;;;;;;;28.42;17.87;;;28.40;56.00;;;;;;1904734;75;21131;-89
2022/01/27 12:50:37;;;;;;;26.90;17.95;;;28.40;56.00;;;;;;1954590;73;21061;-88
2022/01/27 12:53:13;;;;;;;29.25;17.85;;;28.40;56.30;;;;;;1945343;73;21084;-88
2022/01/27 12:55:42;;;;;;;37.75;22.37;;;28.40;56.40;;;;;;1948224;72;21107;-89
2022/01/27 12:58:17;;;;;;;33.25;20.05;;;28.40;56.50;;;;;;1952645;72;21092;-88
2022/01/27 13:00:50;;;;;;;36.33;19.90;;;28.40;56.50;;;;;;1961530;72;21578;-89
2022/01/27 13:03:22;;;;;;;31.00;18.80;;;28.30;56.50;;;;;;1941938;72;21637;-87
2022/01/27 13:05:59;;;;;;;29.15;17.87;;;28.30;56.40;;;;;;1937144;74;21778;-88
2022/01/27 13:08:32;;;;;;;29.95;19.60;;;28.30;56.70;;;;;;1940250;74;21193;-88
2022/01/27 13:11:09;;;;;;;28.65;19.23;;;28.30;56.90;;;;;;1917434;73;21371;-89
2022/01/27 13:13:37;;;;;;;31.82;19.65;;;28.20;57.30;;;;;;1870301;75;21081;-88
2022/01/27 13:16:14;;;;;;;30.43;19.95;;;28.30;57.50;;;;;;1918700;74;21293;-88
2022/01/27 13:19:06;;;;;;;34.05;19.30;;;28.20;57.40;;;;;;1898752;74;21217;-89
2022/01/27 13:21:26;;;;;;;31.25;19.10;;;28.20;57.60;;;;;;1895120;74;21142;-88
2022/01/27 13:23:57;;;;;;;33.45;19.75;;;28.20;57.80;;;;;;1925070;74;21126;-88
2022/01/27 13:26:28;;;;;;;41.63;21.02;;;28.20;58.00;;;;;;1885653;75;21200;-88
2022/01/27 13:28:59;;;;;;;30.17;17.52;;;28.20;57.20;;;;;;1899170;74;21154;-88
2022/01/27 13:31:31;;;;;;;34.43;19.35;;;28.20;57.60;;;;;;1856404;75;21142;-90
2022/01/27 13:34:04;;;;;;;30.20;21.02;;;28.20;57.70;;;;;;1875811;75;21072;-87
2022/01/27 13:36:38;;;;;;;29.37;19.40;;;28.20;58.00;;;;;;1899616;75;21127;-89
2022/01/27 13:39:34;;;;;;;34.85;22.65;;;28.20;57.90;;;;;;1897225;75;21631;-88
2022/01/27 13:41:47;;;;;;;33.30;20.23;;;28.20;58.00;;;;;;1894971;75;21124;-90
2022/01/27 13:44:21;;;;;;;32.35;20.60;;;28.20;58.00;;;;;;1896978;75;21201;-90
2022/01/27 13:46:57;;;;;;;31.42;19.80;;;28.10;58.30;;;;;;1891535;75;21624;-89
2022/01/27 13:49:32;;;;;;;32.05;21.42;;;28.10;58.30;;;;;;1898597;75;21124;-89
2022/01/27 13:52:04;;;;;;;35.33;20.12;;;28.10;58.50;;;;;;1858353;77;21108;-90
2022/01/27 13:54:35;;;;;;;34.75;22.15;;;28.10;58.30;;;;;;1932653;74;21100;-88